Time;durP1;ratioP1;P1;durP2;ratioP2;P2;SDS_P1;SDS_P2;PMS_P1;PMS_P2;Temp;Humidity;BMP_temperature;BMP_pressure;BME280_temperature;BME280_humidity;BME280_pressure;Samples;Min_cycle;Max_cycle;Signal;HPM_P1;HPM_P2
2020/12/16 00:02:21;;;;;;;25.63;6.00;;;;;;;19.26;43.75;99462.81;5073285;28;20047;-77
2020/12/16 00:04:47;;;;;;;26.00;5.90;;;;;;;18.91;44.85;99461.00;5073633;28;20024;-77
2020/12/16 00:07:13;;;;;;;31.88;6.30;;;;;;;19.15;44.31;99467.63;5073336;28;20025;-81
2020/12/16 00:09:39;;;;;;;30.08;6.43;;;;;;;18.75;45.24;99466.19;5073253;28;20028;-77
2020/12/16 00:12:04;;;;;;;22.02;5.70;;;;;;;19.28;44.04;99448.59;5073295;28;20028;-77
2020/12/16 00:14:30;;;;;;;25.38;6.90;;;;;;;19.21;43.76;99443.88;5073250;28;20024;-77
2020/12/16 00:16:56;;;;;;;23.70;7.13;;;;;;;19.23;43.92;99438.72;5072820;28;20053;-78
2020/12/16 00:19:21;;;;;;;30.98;7.00;;;;;;;18.85;44.83;99432.16;5071315;28;20051;-77
2020/12/16 00:21:47;;;;;;;32.13;6.38;;;;;;;18.74;45.15;99428.59;5073034;28;20028;-81
2020/12/16 00:24:13;;;;;;;28.15;6.05;;;;;;;19.31;43.75;99434.72;5073105;28;20028;-77
2020/12/16 00:26:38;;;;;;;22.73;6.63;;;;;;;19.07;44.22;99421.78;5073058;28;20035;-78
2020/12/16 00:29:04;;;;;;;22.38;5.97;;;;;;;19.24;43.84;99432.00;5072453;28;20095;-77
2020/12/16 00:31:30;;;;;;;26.95;5.65;;;;;;;18.95;44.86;99420.25;5073035;28;20024;-80
2020/12/16 00:33:56;;;;;;;31.00;6.78;;;;;;;19.09;44.36;99413.88;5072875;28;20372;-77
2020/12/16 00:36:22;;;;;;;19.73;5.45;;;;;;;19.28;43.96;99393.22;5072937;28;20463;-80
2020/12/16 00:38:47;;;;;;;30.20;6.85;;;;;;;18.41;46.58;99402.19;5072842;28;20035;-78
2020/12/16 00:41:13;;;;;;;30.58;6.00;;;;;;;18.90;45.39;99387.47;5071518;28;20125;-77
2020/12/16 00:43:39;;;;;;;34.53;7.30;;;;;;;18.97;45.08;99378.34;5072726;28;20028;-77
2020/12/16 00:46:04;;;;;;;34.40;6.57;;;;;;;18.85;45.65;99372.06;5072809;28;20166;-81
2020/12/16 00:48:30;;;;;;;32.72;6.82;;;;;;;18.83;45.85;99362.59;5072445;28;20060;-79
2020/12/16 00:50:56;;;;;;;36.42;6.47;;;;;;;18.78;45.95;99358.25;5072730;28;20039;-77
2020/12/16 00:53:21;;;;;;;34.28;6.22;;;;;;;18.88;45.67;99330.91;5072681;28;20037;-77
2020/12/16 00:55:47;;;;;;;31.83;5.45;;;;;;;18.90;45.81;99347.94;5072638;28;20035;-80
2020/12/16 00:58:12;;;;;;;32.40;7.07;;;;;;;19.22;44.87;99344.97;5071352;28;20042;-82
2020/12/16 01:00:38;;;;;;;30.85;7.32;;;;;;;19.06;45.52;99342.72;5072618;28;20059;-77
2020/12/16 01:03:04;;;;;;;30.73;7.57;;;;;;;18.93;45.83;99328.53;5071042;28;20041;-81
2020/12/16 01:05:29;;;;;;;37.13;7.32;;;;;;;18.90;46.02;99325.78;5072513;28;20504;-77
2020/12/16 01:07:55;;;;;;;34.83;7.28;;;;;;;19.33;45.06;99313.25;5072467;28;20025;-77
2020/12/16 01:10:21;;;;;;;25.58;7.00;;;;;;;19.09;45.62;99311.44;5072468;28;20032;-77
2020/12/16 01:12:48;;;;;;;32.65;6.18;;;;;;;18.78;46.42;99302.91;5071214;28;20032;-77
2020/12/16 01:15:20;;;;;;;40.58;7.72;;;;;;;18.77;46.57;99309.63;5072397;28;20029;-80
2020/12/16 01:17:47;;;;;;;36.95;8.02;;;;;;;19.17;45.47;99288.03;5072406;28;20052;-79
2020/12/16 01:20:13;;;;;;;28.95;8.00;;;;;;;19.03;45.95;99293.66;5072360;28;20024;-80
2020/12/16 01:22:43;;;;;;;39.00;8.68;;;;;;;18.98;46.09;99281.06;5072320;28;20054;-77
2020/12/16 01:25:10;;;;;;;40.33;8.05;;;;;;;19.03;46.03;99275.06;5072326;28;20033;-78
2020/12/16 01:27:37;;;;;;;45.30;8.25;;;;;;;18.78;46.78;99274.44;5072276;28;20029;-79
2020/12/16 01:30:05;;;;;;;45.72;8.27;;;;;;;18.72;47.55;99251.94;5072303;28;20028;-77
2020/12/16 01:32:32;;;;;;;40.50;7.75;;;;;;;18.77;47.14;99245.22;5072192;28;20028;-77
2020/12/16 01:34:59;;;;;;;30.20;6.40;;;;;;;18.75;47.13;99226.25;5072253;28;20048;-77
2020/12/16 01:37:25;;;;;;;32.13;7.50;;;;;;;18.47;47.85;99215.31;5072193;28;20562;-77
2020/12/16 01:39:51;;;;;;;37.10;6.82;;;;;;;18.77;47.00;99225.84;5090208;28;20117;-79
2020/12/16 01:42:16;;;;;;;37.20;7.90;;;;;;;18.68;47.06;99212.47;5074834;28;20086;-81
2020/12/16 01:44:42;;;;;;;43.35;8.38;;;;;;;18.76;46.62;99202.91;5076130;28;20031;-77
2020/12/16 01:47:08;;;;;;;45.53;7.82;;;;;;;18.76;46.81;99202.91;5076012;28;20465;-77
2020/12/16 01:49:33;;;;;;;33.95;8.40;;;;;;;18.90;46.28;99193.75;5076020;28;20039;-77
2020/12/16 01:52:05;;;;;;;38.03;6.40;;;;;;;18.71;46.18;99178.44;5075916;28;20036;-77
2020/12/16 01:54:35;;;;;;;33.80;5.82;;;;;;;18.74;46.88;99155.50;5074671;28;20458;-80
2020/12/16 01:57:04;;;;;;;27.27;8.43;;;;;;;18.16;48.42;99143.19;5075915;28;20021;-79
2020/12/16 01:59:35;;;;;;;41.50;8.43;;;;;;;18.15;49.01;99124.22;5075640;28;20025;-81
2020/12/16 02:02:02;;;;;;;29.20;7.30;;;;;;;18.29;48.59;99127.72;5075466;28;20052;-80
2020/12/16 02:04:34;;;;;;;40.33;8.55;;;;;;;18.15;49.37;99129.75;5075670;28;20024;-78
2020/12/16 02:07:05;;;;;;;39.17;8.00;;;;;;;18.37;48.61;99124.91;5074552;28;20375;-81
2020/12/16 02:09:42;;;;;;;33.03;8.43;;;;;;;18.61;47.85;99110.13;5073987;28;20056;-82
2020/12/16 02:12:11;;;;;;;36.15;9.20;;;;;;;18.06;49.09;99102.56;5074419;28;20046;-81
2020/12/16 02:14:36;;;;;;;34.20;7.40;;;;;;;18.43;48.68;99101.94;5074163;28;20470;-79
2020/12/16 02:17:02;;;;;;;36.38;7.75;;;;;;;18.53;48.10;99083.69;5074329;28;20059;-80
2020/12/16 02:19:33;;;;;;;33.67;7.30;;;;;;;18.63;47.85;99091.13;5075162;28;20027;-82
2020/12/16 02:21:58;;;;;;;32.33;7.55;;;;;;;18.61;48.18;99093.53;5075428;28;20025;-78
2020/12/16 02:24:27;;;;;;;39.70;8.77;;;;;;;18.39;48.80;99084.59;5075399;28;20024;-82
2020/12/16 02:26:52;;;;;;;42.17;8.43;;;;;;;18.72;47.79;99068.56;5075356;28;20028;-78
2020/12/16 02:29:19;;;;;;;37.88;8.98;;;;;;;18.54;48.43;99058.41;5075286;28;20479;-78
2020/12/16 02:31:45;;;;;;;41.90;9.43;;;;;;;18.34;49.43;99064.88;5075272;28;20021;-80
2020/12/16 02:34:10;;;;;;;38.03;8.23;;;;;;;18.43;48.88;99054.91;5075131;28;20024;-81
2020/12/16 02:36:36;;;;;;;37.75;8.25;;;;;;;18.49;48.94;99033.94;5075136;28;20025;-78
2020/12/16 02:39:02;;;;;;;53.65;9.40;;;;;;;18.39;49.26;99047.84;5073889;28;20058;-78
2020/12/16 02:41:28;;;;;;;42.22;9.63;;;;;;;18.51;48.78;99028.00;5075114;28;20127;-78
2020/12/16 02:43:54;;;;;;;48.03;8.38;;;;;;;18.84;47.85;99032.88;5074881;28;20111;-78
2020/12/16 02:46:20;;;;;;;42.60;9.52;;;;;;;18.91;47.95;99039.53;5074976;28;20079;-78
2020/12/16 02:48:46;;;;;;;41.65;8.80;;;;;;;18.52;48.99;99013.00;5074949;28;20032;-78
2020/12/16 02:51:11;;;;;;;37.72;9.02;;;;;;;18.47;49.29;99016.97;5074258;28;20487;-78
2020/12/16 02:53:37;;;;;;;43.25;10.25;;;;;;;18.21;50.01;99001.78;5074858;28;20509;-78
2020/12/16 02:56:03;;;;;;;48.25;8.23;;;;;;;18.51;49.36;99003.09;5074795;28;20071;-78
2020/12/16 02:58:28;;;;;;;29.67;6.97;;;;;;;18.05;50.18;99007.00;5073459;28;20032;-78
2020/12/16 03:00:54;;;;;;;28.90;7.28;;;;;;;18.36;49.58;99007.19;5073182;28;20032;-82
2020/12/16 03:03:20;;;;;;;32.83;8.00;;;;;;;18.47;49.43;98994.84;5074627;28;20036;-78
2020/12/16 03:05:45;;;;;;;30.42;7.13;;;;;;;18.58;49.08;99011.34;5074662;28;20032;-79
2020/12/16 03:08:11;;;;;;;33.38;6.75;;;;;;;18.48;49.30;98998.41;5074540;28;20380;-78
2020/12/16 03:10:37;;;;;;;28.50;6.50;;;;;;;18.67;49.02;98997.09;5074487;28;20028;-78
2020/12/16 03:13:04;;;;;;;36.05;7.95;;;;;;;18.82;48.43;98988.25;5074477;28;20486;-81
2020/12/16 03:15:30;;;;;;;25.88;6.85;;;;;;;18.87;48.41;98980.66;5074444;28;20024;-78
2020/12/16 03:17:56;;;;;;;31.08;6.60;;;;;;;18.62;48.93;98967.06;5074366;28;20028;-80
2020/12/16 03:20:21;;;;;;;35.63;7.43;;;;;;;18.84;48.37;98969.22;5074262;28;20030;-78
2020/12/16 03:22:47;;;;;;;36.25;8.55;;;;;;;18.69;48.87;98964.25;5074182;28;20071;-78
2020/12/16 03:25:13;;;;;;;23.05;6.82;;;;;;;18.52;49.56;98960.44;5074248;28;20028;-78
2020/12/16 03:27:39;;;;;;;28.55;6.35;;;;;;;18.64;49.30;98973.75;5074187;28;20024;-78
2020/12/16 03:30:05;;;;;;;30.92;7.50;;;;;;;18.54;49.41;98978.19;5074154;28;20417;-81
2020/12/16 03:32:31;;;;;;;25.23;5.57;;;;;;;18.60;49.27;98959.19;5074112;28;20032;-81
2020/12/16 03:34:57;;;;;;;32.15;7.00;;;;;;;18.54;49.82;98946.97;5074011;28;20040;-80
2020/12/16 03:37:22;;;;;;;22.42;5.88;;;;;;;18.66;49.36;98931.88;5074003;28;20025;-81
2020/12/16 03:39:48;;;;;;;25.83;5.93;;;;;;;18.95;48.67;98930.38;5073955;28;20116;-78
2020/12/16 03:42:13;;;;;;;33.38;7.90;;;;;;;18.95;48.76;98904.69;5073751;28;20459;-78
2020/12/16 03:44:39;;;;;;;36.53;7.40;;;;;;;19.23;47.65;98901.56;5073802;28;20020;-78
2020/12/16 03:47:05;;;;;;;28.70;6.97;;;;;;;18.90;48.93;98896.84;5073997;28;20031;-83
2020/12/16 03:49:33;;;;;;;33.53;7.05;;;;;;;18.66;49.32;98882.06;5073702;28;20028;-78
2020/12/16 03:51:59;;;;;;;29.55;5.60;;;;;;;18.73;49.27;98884.75;5073679;28;20029;-81
2020/12/16 03:54:25;;;;;;;32.00;6.38;;;;;;;18.61;49.62;98883.31;5089271;28;20024;-78
2020/12/16 03:56:51;;;;;;;22.15;4.53;;;;;;;18.89;49.02;98873.13;5073617;28;20107;-81
2020/12/16 03:59:17;;;;;;;33.28;6.30;;;;;;;18.71;49.66;98840.91;5073825;28;20020;-78
2020/12/16 04:01:44;;;;;;;28.63;6.53;;;;;;;18.71;49.49;98863.06;5072943;28;20494;-82
2020/12/16 04:04:09;;;;;;;31.40;5.97;;;;;;;18.84;49.14;98855.78;5073017;28;20360;-79
2020/12/16 04:06:36;;;;;;;27.42;4.97;;;;;;;18.41;50.62;98838.88;5073298;28;20036;-78
2020/12/16 04:09:04;;;;;;;30.02;6.25;;;;;;;18.64;49.84;98835.44;5073366;28;20056;-78
2020/12/16 04:11:29;;;;;;;27.10;6.55;;;;;;;19.02;48.79;98833.41;5073347;28;20103;-78
2020/12/16 04:13:55;;;;;;;26.90;7.28;;;;;;;18.54;50.28;98820.53;5073325;28;20104;-78
2020/12/16 04:16:22;;;;;;;29.38;6.38;;;;;;;18.69;50.24;98804.59;5073192;28;20028;-81
2020/12/16 04:18:48;;;;;;;26.88;5.70;;;;;;;19.01;49.21;98811.69;5073189;28;20082;-81
2020/12/16 04:21:20;;;;;;;22.95;6.28;;;;;;;18.42;50.92;98774.06;5073128;28;20048;-80
2020/12/16 04:23:46;;;;;;;37.40;7.72;;;;;;;18.42;51.24;98781.56;5073091;28;20035;-78
2020/12/16 04:26:12;;;;;;;20.60;5.15;;;;;;;18.64;50.47;98784.88;5073035;28;20063;-81
2020/12/16 04:28:38;;;;;;;26.23;4.53;;;;;;;18.45;51.23;98761.41;5073041;28;20126;-78
2020/12/16 04:31:07;;;;;;;21.98;4.88;;;;;;;18.27;51.58;98734.75;5073068;28;20466;-78
2020/12/16 04:33:33;;;;;;;19.67;5.32;;;;;;;18.68;50.88;98720.03;5072961;28;20107;-79
2020/12/16 04:36:00;;;;;;;29.45;6.28;;;;;;;18.43;53.04;98727.84;5072912;28;20052;-79
2020/12/16 04:38:25;;;;;;;24.75;5.00;;;;;;;18.52;51.29;98730.91;5072768;28;20036;-79
2020/12/16 04:40:51;;;;;;;31.48;5.65;;;;;;;19.04;49.87;98736.13;5071422;28;20024;-81
2020/12/16 04:43:20;;;;;;;33.88;6.35;;;;;;;18.56;51.18;98706.75;5071370;28;20025;-82
2020/12/16 04:45:46;;;;;;;19.20;5.38;;;;;;;18.56;51.38;98737.94;5072770;28;20476;-79
2020/12/16 04:48:13;;;;;;;25.48;5.78;;;;;;;19.04;50.00;98733.34;5071122;28;20111;-82
2020/12/16 04:50:40;;;;;;;30.13;5.57;;;;;;;19.11;50.15;98728.50;5072207;28;20469;-78
2020/12/16 04:53:10;;;;;;;34.78;8.00;;;;;;;18.97;50.28;98709.34;5072699;28;20071;-77
2020/12/16 04:55:36;;;;;;;25.90;5.65;;;;;;;19.07;50.01;98716.72;5072686;28;20025;-78
2020/12/16 04:58:03;;;;;;;33.00;6.32;;;;;;;19.38;49.01;98711.84;5071378;28;20551;-77
2020/12/16 05:00:30;;;;;;;37.25;6.63;;;;;;;19.19;49.33;98725.59;5072603;28;20025;-78
2020/12/16 05:02:59;;;;;;;28.58;6.50;;;;;;;19.28;48.65;98734.19;5072358;28;20086;-79
2020/12/16 05:05:25;;;;;;;29.25;7.35;;;;;;;19.33;48.49;98706.78;5072555;28;20021;-81
2020/12/16 05:07:51;;;;;;;28.65;6.38;;;;;;;19.21;48.67;98706.63;5072553;28;20016;-78
2020/12/16 05:10:30;;;;;;;37.83;8.75;;;;;;;18.97;49.20;98730.72;5072466;28;20035;-78
2020/12/16 05:13:12;;;;;;;30.55;7.15;;;;;;;19.30;48.26;98729.78;5072493;28;20086;-78
2020/12/16 05:15:40;;;;;;;31.88;7.25;;;;;;;19.62;47.20;98712.66;5072277;28;20064;-81
2020/12/16 05:18:08;;;;;;;35.65;6.93;;;;;;;19.77;46.70;98707.63;5072410;28;20029;-80
2020/12/16 05:20:35;;;;;;;43.25;9.75;;;;;;;19.37;47.31;98709.50;5072402;28;20023;-78
2020/12/16 05:23:03;;;;;;;37.15;8.40;;;;;;;19.67;46.38;98720.50;5072362;28;20607;-78
2020/12/16 05:25:29;;;;;;;38.15;7.47;;;;;;;19.23;47.37;98715.28;5072353;28;20103;-81
2020/12/16 05:27:54;;;;;;;39.45;8.93;;;;;;;19.36;47.08;98708.72;5072665;28;20150;-81
2020/12/16 05:30:20;;;;;;;42.78;7.78;;;;;;;19.23;47.05;98712.50;5072314;28;20483;-78
2020/12/16 05:32:46;;;;;;;23.92;5.47;;;;;;;19.20;47.14;98718.91;5072343;28;20421;-81
2020/12/16 05:35:35;;;;;;;28.23;6.30;;;;;;;18.91;47.18;98721.31;5072431;28;20025;-83
2020/12/16 05:38:09;;;;;;;31.20;7.68;;;;;;;18.84;47.36;98722.19;5087150;28;20546;-82
2020/12/16 05:40:40;;;;;;;27.63;7.70;;;;;;;18.60;46.92;98724.09;5072375;28;20021;-82
2020/12/16 05:43:07;;;;;;;28.63;7.03;;;;;;;18.95;46.21;98736.66;5072312;28;20029;-82
2020/12/16 05:45:38;;;;;;;34.08;5.65;;;;;;;18.88;45.69;98744.25;5072304;28;20025;-83
2020/12/16 05:48:11;;;;;;;19.20;4.72;;;;;;;18.77;45.44;98745.22;5072281;28;20100;-83
2020/12/16 05:50:55;;;;;;;16.88;4.40;;;;;;;18.77;45.40;98731.38;5072250;28;20031;-79
2020/12/16 05:53:24;;;;;;;17.05;4.88;;;;;;;18.61;45.25;98719.31;5072628;28;20378;-79
2020/12/16 05:55:52;;;;;;;22.58;5.25;;;;;;;19.20;43.87;98727.19;5072294;28;20028;-82
2020/12/16 05:58:19;;;;;;;16.35;4.32;;;;;;;18.48;45.12;98736.47;5072350;28;20480;-84
2020/12/16 06:00:52;;;;;;;18.67;4.55;;;;;;;19.08;43.21;98753.47;5072272;28;20028;-80
2020/12/16 06:03:29;;;;;;;19.42;5.07;;;;;;;19.17;42.92;98753.72;5072017;28;20040;-82
2020/12/16 06:06:03;;;;;;;16.40;4.57;;;;;;;18.99;42.80;98745.69;5072052;28;20028;-80
2020/12/16 06:08:33;;;;;;;19.38;4.18;;;;;;;18.97;43.12;98739.78;5071928;28;20029;-82
2020/12/16 06:11:00;;;;;;;18.10;5.93;;;;;;;18.84;43.37;98750.66;5071999;28;20028;-82
2020/12/16 06:13:26;;;;;;;17.00;3.58;;;;;;;18.80;43.23;98744.38;5072243;28;20078;-80
2020/12/16 06:16:05;;;;;;;12.20;4.07;;;;;;;18.78;43.04;98735.72;5072002;28;20029;-83
2020/12/16 06:18:40;;;;;;;18.00;3.90;;;;;;;18.89;42.78;98743.06;5087242;28;20479;-82
2020/12/16 06:21:08;;;;;;;13.32;3.85;;;;;;;18.88;42.85;98736.75;5072001;28;20075;-81
2020/12/16 06:23:39;;;;;;;15.50;3.55;;;;;;;18.60;43.53;98740.69;5071973;28;20040;-84
2020/12/16 06:26:07;;;;;;;16.95;3.53;;;;;;;18.45;43.72;98740.06;5073117;28;20086;-82
2020/12/16 06:28:33;;;;;;;24.30;5.63;;;;;;;18.47;44.09;98736.88;5075610;28;20475;-81
2020/12/16 06:31:29;;;;;;;16.08;3.45;;;;;;;18.77;43.03;98733.34;5074236;28;20056;-81
2020/12/16 06:33:59;;;;;;;15.43;3.83;;;;;;;18.77;43.17;98734.13;5075761;28;20382;-82
2020/12/16 06:36:28;;;;;;;20.52;4.20;;;;;;;18.89;42.96;98732.78;5075371;28;20025;-83
2020/12/16 06:38:54;;;;;;;19.35;5.82;;;;;;;18.65;43.75;98715.28;5075458;28;20028;-82
2020/12/16 06:41:26;;;;;;;10.43;3.80;;;;;;;18.51;43.93;98721.81;5075308;28;20029;-80
2020/12/16 06:43:53;;;;;;;19.50;4.35;;;;;;;18.75;43.24;98736.53;5075283;28;20024;-82
2020/12/16 06:46:31;;;;;;;20.00;4.82;;;;;;;18.90;43.29;98731.59;5074131;28;20031;-83
2020/12/16 06:49:04;;;;;;;15.20;4.60;;;;;;;19.05;42.67;98738.50;5073557;28;20016;-83
2020/12/16 06:51:39;;;;;;;20.92;4.25;;;;;;;18.64;43.99;98744.16;5075074;28;20024;-83
2020/12/16 06:54:12;;;;;;;19.67;3.85;;;;;;;18.94;43.28;98737.84;5075092;28;20020;-82
2020/12/16 06:56:38;;;;;;;14.77;3.63;;;;;;;19.15;42.86;98747.03;5075067;28;20024;-80
2020/12/16 06:59:05;;;;;;;24.65;5.32;;;;;;;18.82;43.35;98736.44;5074742;28;20423;-78
2020/12/16 07:01:31;;;;;;;19.20;4.47;;;;;;;18.90;43.49;98750.19;5074835;28;20040;-83
2020/12/16 07:03:57;;;;;;;21.13;4.88;;;;;;;18.73;43.95;98744.47;5075178;28;20020;-83
2020/12/16 07:06:29;;;;;;;17.05;4.70;;;;;;;18.77;43.96;98750.75;5074672;28;20020;-82
2020/12/16 07:09:13;;;;;;;20.55;4.32;;;;;;;18.88;43.43;98736.75;5074885;28;20104;-82
2020/12/16 07:11:46;;;;;;;14.32;3.35;;;;;;;18.84;43.51;98747.09;5074628;28;20040;-78
2020/12/16 07:14:14;;;;;;;13.30;3.00;;;;;;;19.19;42.71;98751.31;5074474;28;20020;-78
2020/12/16 07:16:40;;;;;;;16.27;3.67;;;;;;;19.08;42.80;98762.56;5074310;28;20027;-81
2020/12/16 07:19:06;;;;;;;12.20;3.20;;;;;;;18.91;43.16;98760.84;5074571;28;20067;-82
2020/12/16 07:21:32;;;;;;;16.80;4.57;;;;;;;19.11;42.88;98763.69;5074534;28;20466;-81
2020/12/16 07:24:07;;;;;;;10.05;2.60;;;;;;;19.11;42.54;98761.72;5074291;28;20094;-82
2020/12/16 07:26:43;;;;;;;12.98;2.95;;;;;;;19.15;42.57;98764.44;5074876;28;20028;-83
2020/12/16 07:29:38;;;;;;;11.02;2.58;;;;;;;19.36;41.98;98753.03;5073158;28;20035;-80
2020/12/16 07:32:13;;;;;;;14.68;3.40;;;;;;;19.39;42.17;98751.41;5069053;28;20506;-82
2020/12/16 07:34:56;;;;;;;14.68;2.72;;;;;;;19.26;42.15;98747.66;5074018;28;20383;-80
2020/12/16 07:37:24;;;;;;;7.28;2.17;;;;;;;19.67;41.15;98745.44;5072754;28;20386;-78
2020/12/16 07:39:58;;;;;;;7.80;2.47;;;;;;;19.30;42.10;98748.38;5073923;28;20494;-82
2020/12/16 07:42:31;;;;;;;13.20;2.10;;;;;;;19.24;42.38;98753.63;5073947;28;20028;-82
2020/12/16 07:45:14;;;;;;;10.52;2.72;;;;;;;19.29;42.34;98761.47;5073869;28;20525;-83
2020/12/16 07:47:42;;;;;;;8.77;2.60;;;;;;;19.48;41.84;98779.34;5073430;28;20029;-78
2020/12/16 07:50:11;;;;;;;10.65;2.42;;;;;;;19.34;42.31;98771.25;5076395;28;20032;-84
2020/12/16 07:52:36;;;;;;;5.80;1.60;;;;;;;19.37;42.21;98779.53;5093788;28;20023;-83
2020/12/16 07:55:03;;;;;;;8.57;2.70;;;;;;;19.43;42.00;98782.59;5092604;28;20496;-81
2020/12/16 07:57:33;;;;;;;5.28;1.15;;;;;;;19.53;41.83;98780.84;5093569;28;20027;-82
2020/12/16 07:59:59;;;;;;;8.30;2.38;;;;;;;19.64;41.71;98779.50;5092894;28;20103;-79
2020/12/16 08:02:25;;;;;;;5.53;1.67;;;;;;;19.26;42.22;98776.13;5091709;28;20169;-83
2020/12/16 08:04:59;;;;;;;5.28;1.77;;;;;;;19.29;41.95;98780.84;5092211;28;20028;-81
2020/12/16 08:07:25;;;;;;;8.18;1.50;;;;;;;19.51;41.48;98791.59;5092223;28;20035;-77
2020/12/16 08:09:53;;;;;;;8.52;1.33;;;;;;;19.76;40.94;98791.97;5093132;28;20024;-77
2020/12/16 08:12:20;;;;;;;3.58;1.00;;;;;;;19.76;40.62;98796.75;5093561;28;20077;-77
2020/12/16 08:14:45;;;;;;;8.02;1.83;;;;;;;19.52;41.25;98785.63;5093372;28;20110;-78
2020/12/16 08:17:11;;;;;;;5.93;1.75;;;;;;;19.54;40.95;98797.06;5092902;28;20111;-80
2020/12/16 08:19:37;;;;;;;8.38;2.53;;;;;;;19.32;41.43;98795.81;5091651;28;20379;-79
2020/12/16 08:22:16;;;;;;;4.40;1.30;;;;;;;19.41;41.29;98799.63;5091571;28;20024;-77
2020/12/16 08:24:42;;;;;;;6.80;1.67;;;;;;;19.77;40.56;98793.53;5091425;28;20024;-78
2020/12/16 08:27:09;;;;;;;4.93;1.20;;;;;;;19.47;41.03;98788.84;5091849;28;20397;-82
2020/12/16 08:29:38;;;;;;;4.55;1.25;;;;;;;19.58;40.95;98802.59;5091780;28;20031;-80
2020/12/16 08:32:11;;;;;;;7.53;1.60;;;;;;;19.52;41.12;98823.63;5093234;28;20039;-79
2020/12/16 08:34:43;;;;;;;16.13;3.53;;;;;;;19.74;41.03;98822.09;5093137;28;20382;-81
2020/12/16 08:37:11;;;;;;;5.40;1.73;;;;;;;19.83;41.01;98844.50;5093151;28;20082;-78
2020/12/16 08:39:42;;;;;;;3.65;1.38;;;;;;;19.48;41.57;98820.09;5093438;28;20032;-77
2020/12/16 08:42:11;;;;;;;6.63;1.58;;;;;;;19.79;41.17;98845.75;5093072;28;20032;-78
2020/12/16 08:46:39;;;;;;;6.57;1.35;;;;;;;20.16;40.45;98837.19;5090109;27;20378;-77
2020/12/16 08:49:06;;;;;;;5.13;1.35;;;;;;;20.41;39.95;98820.13;5090110;28;20032;-81
2020/12/16 08:51:38;;;;;;;6.07;1.40;;;;;;;20.53;39.56;98846.47;5089188;28;20024;-82
2020/12/16 08:54:06;;;;;;;5.93;1.95;;;;;;;20.65;39.26;98856.16;5090087;28;20082;-82
2020/12/16 08:56:38;;;;;;;8.18;2.33;;;;;;;20.34;39.86;98858.31;5090025;28;20036;-80
2020/12/16 08:59:14;;;;;;;6.00;1.30;;;;;;;20.26;39.91;98856.88;5090016;28;20035;-83
2020/12/16 09:01:44;;;;;;;6.13;1.85;;;;;;;20.49;39.17;98859.63;5089942;28;20052;-78
2020/12/16 09:04:10;;;;;;;5.30;1.20;;;;;;;19.93;40.35;98873.25;5088529;28;20034;-79
2020/12/16 09:06:36;;;;;;;6.72;1.88;;;;;;;20.28;39.43;98873.84;5089725;28;20035;-82
2020/12/16 09:09:15;;;;;;;6.10;1.45;;;;;;;20.05;39.84;98867.13;5089795;28;20030;-80
2020/12/16 09:11:50;;;;;;;10.82;2.30;;;;;;;20.34;39.55;98884.03;5088259;28;20043;-81
2020/12/16 09:14:16;;;;;;;8.27;2.25;;;;;;;20.20;39.82;98881.53;5086139;28;20386;-78
2020/12/16 09:16:42;;;;;;;8.65;1.92;;;;;;;20.32;39.53;98886.44;5089035;28;20036;-77
2020/12/16 09:19:14;;;;;;;9.80;1.90;;;;;;;20.29;39.51;98889.28;5089005;28;20024;-81
2020/12/16 09:21:40;;;;;;;9.02;1.48;;;;;;;20.04;40.04;98895.25;5088793;28;20073;-78
2020/12/16 09:24:06;;;;;;;6.05;1.25;;;;;;;20.01;40.27;98901.63;5085647;28;20122;-80
2020/12/16 09:26:38;;;;;;;6.82;1.33;;;;;;;20.20;39.81;98920.34;5088279;28;20119;-78
2020/12/16 09:29:19;;;;;;;6.32;1.55;;;;;;;19.97;40.08;98917.56;5088415;28;20051;-81
2020/12/16 09:31:45;;;;;;;4.43;1.42;;;;;;;20.34;39.60;98925.66;5087090;28;20051;-82
2020/12/16 09:34:11;;;;;;;7.22;1.70;;;;;;;20.29;39.77;98936.44;5088188;28;20119;-82
2020/12/16 09:36:37;;;;;;;4.32;1.40;;;;;;;20.03;40.41;98946.38;5088310;28;20115;-78
2020/12/16 09:39:05;;;;;;;6.78;1.55;;;;;;;20.02;40.32;98945.56;5088513;28;20521;-78
2020/12/16 09:41:45;;;;;;;7.35;1.38;;;;;;;20.33;39.60;98949.03;5087021;28;20039;-81
2020/12/16 09:44:29;;;;;;;4.53;1.23;;;;;;;20.42;39.45;98959.59;5088170;28;20033;-77
2020/12/16 09:47:09;;;;;;;5.85;1.30;;;;;;;20.37;39.47;98983.03;5087974;28;20025;-77
2020/12/16 09:49:35;;;;;;;5.05;1.02;;;;;;;19.99;40.47;98981.66;5087984;28;20027;-81
2020/12/16 09:52:00;;;;;;;4.50;1.52;;;;;;;20.18;40.08;98989.31;5087905;28;20021;-77
2020/12/16 09:54:30;;;;;;;4.43;1.80;;;;;;;20.14;40.12;98988.56;5087846;28;20034;-77
2020/12/16 09:57:09;;;;;;;;;;;;;;;19.93;40.60;99000.75;5077068;28;20052;-82
2020/12/16 09:59:35;;;;;;;5.50;1.48;;;;;;;20.22;39.91;98984.47;5074246;28;19927;-82
2020/12/16 10:02:01;;;;;;;6.50;1.85;;;;;;;20.33;39.74;99007.28;5074152;28;20086;-79
2020/12/16 10:04:27;;;;;;;5.32;1.55;;;;;;;20.23;39.98;99013.78;5074039;28;20490;-77
2020/12/16 10:06:53;;;;;;;7.05;1.58;;;;;;;20.38;39.66;99001.25;5074100;28;20017;-80
2020/12/16 10:09:19;;;;;;;6.05;1.60;;;;;;;20.39;39.65;99025.00;5074114;28;20488;-80
2020/12/16 10:11:51;;;;;;;3.88;1.92;;;;;;;20.49;39.53;99032.41;5074069;28;20055;-77
2020/12/16 10:14:17;;;;;;;7.15;1.20;;;;;;;20.56;39.22;99025.19;5071637;28;20078;-81
2020/12/16 10:16:49;;;;;;;4.40;1.30;;;;;;;20.29;39.63;99028.72;5073999;28;20024;-79
2020/12/16 10:19:16;;;;;;;8.80;1.73;;;;;;;20.35;39.73;99038.16;5073888;28;20013;-77
2020/12/16 10:21:45;;;;;;;2.55;0.90;;;;;;;20.43;39.41;99044.38;5072677;28;20051;-82
2020/12/16 10:24:10;;;;;;;5.57;1.30;;;;;;;20.36;39.63;99030.63;5073827;28;20029;-79
2020/12/16 10:26:36;;;;;;;3.33;1.00;;;;;;;20.27;39.84;99069.19;5073709;28;20104;-82
2020/12/16 10:29:02;;;;;;;4.07;1.10;;;;;;;20.51;39.24;99062.50;5074032;28;20111;-79
2020/12/16 10:31:28;;;;;;;1.90;0.93;;;;;;;20.33;39.47;99079.41;5073730;28;20086;-81
2020/12/16 10:33:53;;;;;;;3.85;1.13;;;;;;;20.32;39.42;99077.81;5073581;28;20028;-78
2020/12/16 10:36:19;;;;;;;2.15;0.70;;;;;;;20.29;39.64;99089.75;5073641;28;20029;-80
2020/12/16 10:38:44;;;;;;;5.20;1.25;;;;;;;20.46;39.13;99099.81;5073047;28;20089;-78
2020/12/16 10:41:11;;;;;;;3.13;0.80;;;;;;;20.53;38.95;99098.16;5073825;28;20035;-81
2020/12/16 10:43:37;;;;;;;2.63;0.95;;;;;;;20.36;39.41;99097.19;5073280;28;20029;-82
2020/12/16 10:46:06;;;;;;;4.28;1.08;;;;;;;20.24;39.57;99101.31;5073357;28;20407;-81
2020/12/16 10:48:32;;;;;;;4.72;1.27;;;;;;;20.44;39.08;99110.56;5073682;28;20081;-77
2020/12/16 10:50:57;;;;;;;4.32;1.20;;;;;;;20.28;39.52;99115.13;5074069;28;20024;-82
2020/12/16 10:53:25;;;;;;;7.45;1.48;;;;;;;20.23;39.59;99122.72;5072657;28;20031;-80
2020/12/16 10:55:52;;;;;;;3.00;0.88;;;;;;;20.32;39.30;99127.72;5074121;28;20070;-76
2020/12/16 10:58:18;;;;;;;2.40;1.10;;;;;;;20.43;39.21;99133.94;5074272;28;20428;-78
2020/12/16 11:00:44;;;;;;;3.13;1.02;;;;;;;20.54;38.94;99141.34;5073313;28;20028;-77
2020/12/16 11:03:09;;;;;;;3.75;1.45;;;;;;;20.73;38.48;99160.88;5074147;28;20085;-79
2020/12/16 11:05:35;;;;;;;8.50;1.95;;;;;;;20.46;39.09;99163.63;5073464;28;20382;-81
2020/12/16 11:08:01;;;;;;;8.82;2.33;;;;;;;20.32;39.01;99172.09;5071792;28;20074;-78
2020/12/16 11:10:27;;;;;;;3.55;1.45;;;;;;;20.39;39.08;99177.56;5071352;28;20437;-77
2020/12/16 11:12:52;;;;;;;3.30;0.88;;;;;;;20.22;39.34;99184.91;5072531;28;20028;-77
2020/12/16 11:15:18;;;;;;;4.05;0.77;;;;;;;20.53;38.84;99198.03;5071453;28;20474;-78
2020/12/16 11:17:43;;;;;;;8.18;2.00;;;;;;;20.66;38.59;99190.72;5072711;28;20466;-78
2020/12/16 11:20:09;;;;;;;3.50;0.80;;;;;;;20.71;38.42;99196.59;5072750;28;20036;-80
2020/12/16 11:22:37;;;;;;;10.10;2.17;;;;;;;20.42;38.92;99193.38;5073544;28;20032;-81
2020/12/16 11:25:04;;;;;;;5.78;1.25;;;;;;;20.60;38.64;99197.94;5073542;28;20078;-80
2020/12/16 11:27:29;;;;;;;6.18;1.25;;;;;;;20.40;39.10;99206.09;5073491;28;20032;-78
2020/12/16 11:29:55;;;;;;;7.07;1.67;;;;;;;20.43;39.08;99199.72;5073982;28;20036;-78
2020/12/16 11:32:21;;;;;;;7.15;1.55;;;;;;;20.30;39.08;99210.56;5073502;28;20482;-77
2020/12/16 11:34:47;;;;;;;6.00;0.93;;;;;;;20.46;38.87;99221.88;5073467;28;20127;-77
2020/12/16 11:37:14;;;;;;;6.32;1.02;;;;;;;20.08;39.54;99217.59;5072183;28;20028;-77